• Join FlightAware (Why Join?)
  • Login
  • US Flag 
07:05AM EDT


 

Airport Tracker/Info


-or-


 

Live Flight TrackerFlight Track Log ✈ UAL538 ✈ 23-Apr-2013 ✈ KDEN - KDSM

Flight Track Log - Related Links

Times and Time Zones

All times are in EDT time to prevent confusion due to time zone crossing. See the UAL538 flight status page for this flight to view local times or setup timezone preferences in your user account.

Time Position Orientation Groundspeed Altitude Reporting Facility
EDT Latitude Longitude Course Direction KTS MPH feet Rate Location/Type
10:05PM 39.8833 -104.6000 66° East 179 206 6,200  Level Denver TRACON
10:06PM 39.8833 -104.5333 90° East 230 265 7,600 2,040 Climbing Denver TRACON
10:07PM 39.9167 -104.4333 66° East 282 325 10,300 1,920 Climbing Denver TRACON
10:08PM 39.9532 -104.0978 78° East  Level FlightAware Approximate
10:08PM 39.9333 -104.3500 75° East 337 388 11,300  Level Denver TRACON
10:09PM 39.9790 -103.9553 75° East  Level FlightAware Approximate
10:09PM 39.9606 -104.2042 76° East 369 425 14,300  Level Denver Center
10:10PM 40.0016 -103.8119 66° East  Level FlightAware Approximate
10:10PM 39.9803 -104.0703 79° East 381 438 16,700  Level Denver Center
10:11PM 39.9975 -103.9197 81° East 391 450 19,300 2,160 Climbing Denver Center
10:12PM 40.0200 -103.7781 78° East 403 464 21,200 1,680 Climbing Denver Center
10:13PM 40.0425 -103.6372 78° East 412 474 22,800 1,500 Climbing Denver Center
10:14PM 40.0681 -103.4819 78° East 432 497 24,300 1,440 Climbing Denver Center
10:15PM 40.0942 -103.3217 78° East 444 511 25,800 1,260 Climbing Denver Center
10:16PM 40.1214 -103.1561 78° East 461 531 27,000 1,560 Climbing Denver Center
10:17PM 40.1517 -102.9600 79° East 467 537 29,100 1,560 Climbing Denver Center
10:18PM 40.1783 -102.7933 78° East 465 535 30,300 1,200 Climbing Denver Center
10:19PM 40.2022 -102.6306 79° East 475 547 31,600 1,200 Climbing Denver Center
10:20PM 40.2283 -102.4681 78° East 478 550 32,800 660 Climbing Denver Center
10:21PM 40.2561 -102.2800 79° East 473 544 33,000 60 Climbing Denver Center
10:22PM 40.2814 -102.1172 78° East 477 549 33,000  Level Denver Center
10:23PM 40.3100 -101.9250 79° East 482 555 33,000  Level Denver Center
10:24PM 40.3344 -101.7575 79° East 489 563 33,100  Climbing Denver Center
10:25PM 40.3633 -101.5636 79° East 487 560 33,000 -60 Descending Denver Center
10:26PM 40.3869 -101.4003 79° East 479 551 33,000  Level Denver Center
10:27PM 40.4103 -101.2364 79° East 479 551 33,000  Level Denver Center
10:28PM 40.4375 -101.0467 79° East 478 550 33,000  Level Denver Center
10:29PM 40.4597 -100.8842 80° East 477 549 33,000  Level Denver Center
10:30PM 40.4839 -100.6950 80° East 476 548 33,000  Level Denver Center
10:31PM 40.5053 -100.5333 80° East 475 547 33,000  Level Denver Center
10:32PM 40.5286 -100.3422 81° East 478 550 33,000  Level Denver Center
10:33PM 40.5497 -100.1764 80° East 483 556 33,000  Level Denver Center
10:34PM 40.5733 -99.9817 81° East 484 557 33,000  Level Denver Center
10:35PM 40.5942 -99.8194 80° East 487 560 33,100  Climbing Denver Center
10:36PM 40.6150 -99.6433 81° East 488 562 33,000 -60 Descending Denver Center
10:37PM 40.6356 -99.4686 81° East 486 559 33,000  Level Denver Center
10:38PM 40.6567 -99.2922 81° East 487 560 33,000  Level Denver Center
10:39PM 40.6806 -99.0797 82° East 491 565 33,000  Level Denver Center
10:40PM 40.6933 -98.9747 81° East 491 565 33,000  Level Minneapolis Center
10:41PM 40.7131 -98.7994 82° East 489 563 33,000  Level Minneapolis Center
10:42PM 40.7325 -98.6222 82° East 492 566 33,000  Level Minneapolis Center
10:43PM 40.7522 -98.4439 82° East 495 570 33,000  Level Minneapolis Center
10:44PM 40.7711 -98.2644 82° East 497 572 33,000  Level Minneapolis Center
10:45PM 40.7897 -98.0828 82° East 500 575 33,000  Level Minneapolis Center
10:46PM 40.8056 -97.9367 82° East 503 579 33,000  Level Minneapolis Center
10:47PM 40.8358 -97.6817 81° East 504 580 33,000  Level Minneapolis Center
10:48PM 40.8717 -97.4989 75° East 511 588 33,000  Level Minneapolis Center
10:49PM 40.9036 -97.3272 76° East 512 589 33,000  Level Minneapolis Center
10:50PM 40.9319 -97.1419 78° East 515 593 33,000  Level Minneapolis Center
10:51PM 40.9608 -96.9561 78° East 517 595 33,000  Level Minneapolis Center
10:52PM 40.9914 -96.7708 78° East 517 595 33,000  Level Minneapolis Center
10:53PM 41.0206 -96.5869 78° East 514 592 33,000  Level Minneapolis Center
10:54PM 41.0544 -96.3669 78° East 512 589 33,000  Level Minneapolis Center
10:55PM 41.0831 -96.1836 78° East 512 589 33,000 -1,620 Level Minneapolis Center
10:56PM 41.1111 -95.9972 79° East 521 600 29,800 -3,180 Descending Minneapolis Center
10:57PM 41.1356 -95.8150 80° East 552 635 26,600 -2,460 Descending Minneapolis Center
10:58PM 41.1675 -95.6100 78° East 530 610 24,800 -1,920 Descending Minneapolis Center
10:59PM 41.1936 -95.4333 79° East 496 571 22,800 -2,160 Descending Minneapolis Center
11:00PM 41.2189 -95.2625 79° East 476 548 20,500 -2,220 Descending Minneapolis Center
11:02PM 41.2417 -95.0967 80° East 465 535 18,300 -2,100 Descending Minneapolis Center
11:03PM 41.2686 -94.9125 79° East 433 498 16,200 -1,980 Descending Minneapolis Center
11:04PM 41.2878 -94.7650 80° East 414 476 14,300 -1,920 Descending Minneapolis Center
11:05PM 41.3069 -94.6278 79° East 390 449 12,400 -1,680 Descending Minneapolis Center
11:06PM 41.3253 -94.4958 79° East 358 412 11,000 -1,020 Descending Minneapolis Center
11:06PM 41.3372 -94.4450 73° East 327 376 11,000  Level Minneapolis Center
11:06PM 41.3439 -94.4111 75° East 317 365 11,000  Level Minneapolis Center
11:07PM 41.3428 -94.3767 92° East 305 351 11,000 -1,020 Level Minneapolis Center
11:07PM 41.3619 -94.3044 71° East 300 345 10,000 -1,380 Descending Minneapolis Center
11:08PM 41.3647 -94.2717 84° East 297 342 9,600 -1,380 Descending Minneapolis Center
11:08PM 41.3864 -94.1997 68° East 295 339 8,600 -1,680 Descending Minneapolis Center
11:09PM 41.3883 -94.1700 85° East 288 331 7,900 -2,100 Descending Minneapolis Center
11:09PM 41.4067 -94.1036 70° East 274 315 6,500 -2,100 Descending Minneapolis Center
11:10PM 41.4089 -94.0756 84° East 269 310 5,800 -1,620 Descending Minneapolis Center
11:10PM 41.4289 -94.0019 70° East 266 306 4,900 -1,320 Descending Minneapolis Center
11:11PM 41.4300 -93.9756 87° East 263 303 4,500 -1,020 Descending Minneapolis Center
11:11PM 41.4494 -93.9139 67° East 255 293 3,900 -900 Descending Minneapolis Center
11:12PM 41.4500 -93.8900 88° East 246 283 3,600 -840 Descending Minneapolis Center